AUA18T LOWW-LQSA
Flight info
| Callsign | AUA18T |
|---|---|
| Flight time | 0h 43m |
| Altitude | 31000 |
| Route | STEIN DCT NOHAT DCT KOPRY DCT BOSNA |
| Aircraft | A320/M-SDE3FGHIRWY/LB1 |
Departure
| Time | 2026-04-22 17:53 |
|---|---|
| Airport | Vienna International Airport (LOWW) |
Arrival
| Time | 2026-04-22 18:36 |
|---|---|
| Airport | Sarajevo International Airport (LQSA) |
| Time | Latitude | Longitude | Altitude | Speed | Heading |
|---|---|---|---|---|---|
| 2026-04-22 17:21 | 48.11772 | 16.56566 | 602 ft | 0 kts | 25° |
| 2026-04-22 17:43 | 48.11773 | 16.56567 | 602 ft | 1 kts | 25° |
| 2026-04-22 17:44 | 48.11773 | 16.56566 | 602 ft | 2 kts | 25° |
| 2026-04-22 17:44 | 48.11758 | 16.56556 | 602 ft | 2 kts | 25° |
| 2026-04-22 17:44 | 48.11743 | 16.56546 | 603 ft | 2 kts | 25° |
| 2026-04-22 17:44 | 48.11729 | 16.56537 | 621 ft | 2 kts | 39° |
| 2026-04-22 17:45 | 48.11720 | 16.56517 | 618 ft | 2 kts | 107° |
| 2026-04-22 17:45 | 48.11721 | 16.56513 | 618 ft | 0 kts | 114° |
| 2026-04-22 17:45 | 48.11721 | 16.56514 | 618 ft | 0 kts | 114° |
| 2026-04-22 17:48 | 48.11716 | 16.56527 | 617 ft | 4 kts | 118° |
| 2026-04-22 17:48 | 48.11684 | 16.56605 | 615 ft | 9 kts | 120° |
| 2026-04-22 17:48 | 48.11652 | 16.56702 | 614 ft | 10 kts | 115° |
| 2026-04-22 17:48 | 48.11626 | 16.56782 | 617 ft | 7 kts | 115° |
| 2026-04-22 17:49 | 48.11607 | 16.56829 | 611 ft | 3 kts | 119° |
| 2026-04-22 17:49 | 48.11599 | 16.56850 | 612 ft | 2 kts | 119° |
| 2026-04-22 17:49 | 48.11589 | 16.56876 | 609 ft | 8 kts | 119° |
| 2026-04-22 17:49 | 48.11514 | 16.56902 | 611 ft | 12 kts | 198° |
| 2026-04-22 17:50 | 48.11454 | 16.56861 | 618 ft | 8 kts | 205° |
| 2026-04-22 17:50 | 48.11393 | 16.56824 | 618 ft | 12 kts | 190° |
| 2026-04-22 17:50 | 48.11341 | 16.56876 | 626 ft | 7 kts | 124° |
| 2026-04-22 17:50 | 48.11325 | 16.56919 | 626 ft | 4 kts | 116° |
| 2026-04-22 17:51 | 48.11284 | 16.57047 | 620 ft | 23 kts | 116° |
| 2026-04-22 17:51 | 48.11217 | 16.57254 | 623 ft | 22 kts | 115° |
| 2026-04-22 17:51 | 48.11149 | 16.57461 | 620 ft | 22 kts | 117° |
| 2026-04-22 17:51 | 48.11099 | 16.57605 | 619 ft | 7 kts | 129° |
| 2026-04-22 17:52 | 48.11065 | 16.57633 | 616 ft | 5 kts | 164° |
| 2026-04-22 17:52 | 48.11042 | 16.57632 | 619 ft | 2 kts | 189° |
| 2026-04-22 17:52 | 48.10991 | 16.57602 | 626 ft | 23 kts | 214° |
| 2026-04-22 17:52 | 48.10987 | 16.57320 | 629 ft | 31 kts | 293° |
| 2026-04-22 17:53 | 48.11090 | 16.57004 | 631 ft | 51 kts | 296° |
| 2026-04-22 17:53 | 48.11372 | 16.56136 | 625 ft | 132 kts | 295° |
| 2026-04-22 17:53 | 48.11860 | 16.54650 | 810 ft | 176 kts | 297° |
| 2026-04-22 17:53 | 48.12365 | 16.52908 | 1270 ft | 190 kts | 294° |
| 2026-04-22 17:54 | 48.12486 | 16.50841 | 1610 ft | 216 kts | 256° |
| 2026-04-22 17:54 | 48.11551 | 16.48931 | 1998 ft | 245 kts | 218° |
| 2026-04-22 17:54 | 48.10023 | 16.47700 | 2691 ft | 254 kts | 205° |
| 2026-04-22 17:54 | 48.08364 | 16.46877 | 3465 ft | 259 kts | 186° |
| 2026-04-22 17:55 | 48.07140 | 16.46945 | 3955 ft | 262 kts | 169° |
| 2026-04-22 17:55 | 48.04727 | 16.47820 | 4729 ft | 281 kts | 168° |
| 2026-04-22 17:55 | 48.02758 | 16.48306 | 4966 ft | 288 kts | 172° |
| 2026-04-22 17:55 | 48.00768 | 16.48669 | 5004 ft | 288 kts | 173° |
| 2026-04-22 17:56 | 47.98764 | 16.48928 | 5624 ft | 290 kts | 180° |
| 2026-04-22 17:56 | 47.96758 | 16.48578 | 6527 ft | 292 kts | 194° |
| 2026-04-22 17:56 | 47.94741 | 16.48155 | 7341 ft | 296 kts | 175° |
| 2026-04-22 17:56 | 47.92695 | 16.48586 | 8189 ft | 298 kts | 170° |
| 2026-04-22 17:57 | 47.90642 | 16.49123 | 9033 ft | 300 kts | 169° |
| 2026-04-22 17:57 | 47.88571 | 16.49671 | 9888 ft | 303 kts | 169° |
| 2026-04-22 17:57 | 47.86453 | 16.50208 | 10405 ft | 319 kts | 169° |
| 2026-04-22 17:57 | 47.84211 | 16.50749 | 10609 ft | 342 kts | 170° |
| 2026-04-22 17:58 | 47.81779 | 16.51312 | 10774 ft | 366 kts | 170° |
| 2026-04-22 17:58 | 47.79186 | 16.51895 | 10904 ft | 387 kts | 170° |
| 2026-04-22 17:58 | 47.76453 | 16.52505 | 11101 ft | 405 kts | 170° |
| 2026-04-22 17:58 | 47.73641 | 16.53131 | 11621 ft | 411 kts | 170° |
| 2026-04-22 17:59 | 47.70798 | 16.53760 | 12227 ft | 415 kts | 170° |
| 2026-04-22 17:59 | 47.67920 | 16.54396 | 12851 ft | 419 kts | 170° |
| 2026-04-22 17:59 | 47.65029 | 16.55037 | 13474 ft | 422 kts | 169° |
| 2026-04-22 17:59 | 47.62107 | 16.55689 | 14065 ft | 426 kts | 169° |
| 2026-04-22 18:00 | 47.60158 | 16.56124 | 14410 ft | 429 kts | 169° |
| 2026-04-22 18:00 | 47.56196 | 16.57003 | 15118 ft | 433 kts | 169° |
| 2026-04-22 18:00 | 47.53210 | 16.57665 | 15630 ft | 436 kts | 169° |
| 2026-04-22 18:00 | 47.50199 | 16.58331 | 16128 ft | 439 kts | 169° |
| 2026-04-22 18:01 | 47.47163 | 16.59001 | 16632 ft | 441 kts | 169° |
| 2026-04-22 18:01 | 47.44152 | 16.59665 | 17100 ft | 444 kts | 169° |
| 2026-04-22 18:01 | 47.41059 | 16.60062 | 17569 ft | 449 kts | 176° |
| 2026-04-22 18:01 | 47.37924 | 16.60199 | 18015 ft | 452 kts | 176° |
| 2026-04-22 18:02 | 47.34767 | 16.60331 | 18451 ft | 455 kts | 176° |
| 2026-04-22 18:02 | 47.31589 | 16.60464 | 18827 ft | 458 kts | 176° |
| 2026-04-22 18:02 | 47.28396 | 16.60600 | 19195 ft | 460 kts | 176° |
| 2026-04-22 18:02 | 47.27313 | 16.60646 | 19312 ft | 460 kts | 176° |
| 2026-04-22 18:03 | 47.23061 | 16.60827 | 19806 ft | 463 kts | 176° |
| 2026-04-22 18:03 | 47.19832 | 16.60961 | 20147 ft | 465 kts | 176° |
| 2026-04-22 18:03 | 47.16591 | 16.61096 | 20467 ft | 468 kts | 176° |
| 2026-04-22 18:03 | 47.12222 | 16.61288 | 20903 ft | 470 kts | 176° |
| 2026-04-22 18:04 | 47.08942 | 16.61435 | 21226 ft | 472 kts | 176° |
| 2026-04-22 18:04 | 47.05647 | 16.61583 | 21519 ft | 474 kts | 176° |
| 2026-04-22 18:04 | 47.02333 | 16.61728 | 21829 ft | 476 kts | 176° |
| 2026-04-22 18:04 | 46.99019 | 16.61870 | 22156 ft | 477 kts | 176° |
| 2026-04-22 18:05 | 46.95737 | 16.62010 | 22460 ft | 479 kts | 176° |
| 2026-04-22 18:05 | 46.92404 | 16.62155 | 22745 ft | 480 kts | 176° |
| 2026-04-22 18:05 | 46.89055 | 16.62295 | 23010 ft | 482 kts | 176° |
| 2026-04-22 18:05 | 46.85695 | 16.62439 | 23278 ft | 484 kts | 176° |
| 2026-04-22 18:06 | 46.82343 | 16.62893 | 23521 ft | 483 kts | 168° |
| 2026-04-22 18:06 | 46.79078 | 16.64013 | 23752 ft | 482 kts | 160° |
| 2026-04-22 18:06 | 46.75941 | 16.65730 | 23929 ft | 482 kts | 155° |
| 2026-04-22 18:06 | 46.72831 | 16.67589 | 24114 ft | 484 kts | 155° |
| 2026-04-22 18:07 | 46.70767 | 16.68815 | 24280 ft | 483 kts | 155° |
| 2026-04-22 18:07 | 46.66600 | 16.71273 | 24640 ft | 482 kts | 155° |
| 2026-04-22 18:07 | 46.63490 | 16.73102 | 24912 ft | 482 kts | 155° |
| 2026-04-22 18:07 | 46.60383 | 16.74936 | 25188 ft | 482 kts | 155° |
| 2026-04-22 18:08 | 46.57281 | 16.76766 | 25467 ft | 481 kts | 155° |
| 2026-04-22 18:08 | 46.54180 | 16.78593 | 25764 ft | 481 kts | 155° |
| 2026-04-22 18:08 | 46.51078 | 16.80422 | 26046 ft | 481 kts | 155° |
| 2026-04-22 18:08 | 46.47981 | 16.82252 | 26334 ft | 480 kts | 155° |
| 2026-04-22 18:09 | 46.44884 | 16.84081 | 26628 ft | 480 kts | 155° |
| 2026-04-22 18:09 | 46.41795 | 16.85900 | 26927 ft | 479 kts | 155° |
| 2026-04-22 18:09 | 46.38745 | 16.87689 | 27226 ft | 479 kts | 155° |
| 2026-04-22 18:09 | 46.35657 | 16.89495 | 27532 ft | 479 kts | 155° |
| 2026-04-22 18:10 | 46.32565 | 16.91297 | 27851 ft | 479 kts | 156° |
| 2026-04-22 18:10 | 46.29470 | 16.93108 | 28089 ft | 480 kts | 155° |
| 2026-04-22 18:10 | 46.26393 | 16.94924 | 28731 ft | 470 kts | 156° |
| 2026-04-22 18:10 | 46.23399 | 16.96570 | 30008 ft | 451 kts | 158° |
| 2026-04-22 18:11 | 46.20452 | 16.98033 | 30737 ft | 445 kts | 160° |
| 2026-04-22 18:11 | 46.17485 | 16.99374 | 31018 ft | 448 kts | 161° |
| 2026-04-22 18:11 | 46.14480 | 17.00647 | 31157 ft | 454 kts | 162° |
| 2026-04-22 18:12 | 46.08303 | 17.03207 | 31187 ft | 469 kts | 162° |
| 2026-04-22 18:12 | 46.03040 | 17.05461 | 31183 ft | 480 kts | 162° |
| 2026-04-22 18:13 | 45.95491 | 17.08785 | 31185 ft | 488 kts | 161° |
| 2026-04-22 18:13 | 45.90096 | 17.11167 | 31191 ft | 488 kts | 162° |
| 2026-04-22 18:14 | 45.82531 | 17.14479 | 31189 ft | 489 kts | 162° |
| 2026-04-22 18:14 | 45.77113 | 17.16831 | 31185 ft | 488 kts | 162° |
| 2026-04-22 18:15 | 45.70619 | 17.19636 | 31180 ft | 487 kts | 162° |
| 2026-04-22 18:15 | 45.64129 | 17.22436 | 31179 ft | 488 kts | 162° |
| 2026-04-22 18:16 | 45.57627 | 17.25243 | 31177 ft | 488 kts | 162° |
| 2026-04-22 18:16 | 45.51128 | 17.28041 | 31183 ft | 488 kts | 162° |
| 2026-04-22 18:17 | 45.44616 | 17.30830 | 31183 ft | 488 kts | 162° |
| 2026-04-22 18:17 | 45.38106 | 17.33610 | 31202 ft | 488 kts | 163° |
| 2026-04-22 18:18 | 45.31603 | 17.36385 | 31203 ft | 488 kts | 163° |
| 2026-04-22 18:18 | 45.25149 | 17.39135 | 31200 ft | 487 kts | 163° |
| 2026-04-22 18:19 | 45.18653 | 17.41894 | 31189 ft | 487 kts | 163° |
| 2026-04-22 18:19 | 45.15408 | 17.43268 | 30812 ft | 484 kts | 163° |
| 2026-04-22 18:19 | 45.12178 | 17.44629 | 29749 ft | 485 kts | 163° |
| 2026-04-22 18:19 | 45.08939 | 17.45990 | 28541 ft | 487 kts | 162° |
| 2026-04-22 18:20 | 45.05685 | 17.47356 | 27336 ft | 488 kts | 162° |
| 2026-04-22 18:20 | 45.02428 | 17.48722 | 26175 ft | 489 kts | 162° |
| 2026-04-22 18:20 | 44.99162 | 17.50095 | 25579 ft | 491 kts | 162° |
| 2026-04-22 18:20 | 44.95883 | 17.51481 | 25336 ft | 493 kts | 161° |
| 2026-04-22 18:21 | 44.92726 | 17.53332 | 25169 ft | 491 kts | 151° |
| 2026-04-22 18:21 | 44.89697 | 17.55582 | 25220 ft | 492 kts | 150° |
| 2026-04-22 18:21 | 44.86700 | 17.57908 | 25213 ft | 492 kts | 149° |
| 2026-04-22 18:21 | 44.83698 | 17.60251 | 25214 ft | 492 kts | 149° |
| 2026-04-22 18:22 | 44.80706 | 17.62586 | 25212 ft | 492 kts | 149° |
| 2026-04-22 18:22 | 44.77713 | 17.64922 | 25132 ft | 491 kts | 149° |
| 2026-04-22 18:22 | 44.74787 | 17.67211 | 24224 ft | 487 kts | 149° |
| 2026-04-22 18:22 | 44.71846 | 17.69498 | 23323 ft | 481 kts | 149° |
| 2026-04-22 18:23 | 44.68927 | 17.71742 | 22418 ft | 474 kts | 149° |
| 2026-04-22 18:23 | 44.66046 | 17.73951 | 21611 ft | 469 kts | 149° |
| 2026-04-22 18:23 | 44.63187 | 17.76139 | 21288 ft | 468 kts | 149° |
| 2026-04-22 18:24 | 44.57476 | 17.80505 | 21212 ft | 467 kts | 149° |
| 2026-04-22 18:24 | 44.54551 | 17.82511 | 21200 ft | 470 kts | 158° |
| 2026-04-22 18:24 | 44.48169 | 17.83422 | 19993 ft | 463 kts | 190° |
| 2026-04-22 18:25 | 44.45119 | 17.82066 | 19244 ft | 458 kts | 206° |
| 2026-04-22 18:25 | 44.42310 | 17.80007 | 18510 ft | 454 kts | 205° |
| 2026-04-22 18:25 | 44.39354 | 17.78711 | 17755 ft | 449 kts | 189° |
| 2026-04-22 18:26 | 44.33250 | 17.79239 | 16388 ft | 436 kts | 162° |
| 2026-04-22 18:26 | 44.30517 | 17.80766 | 16233 ft | 409 kts | 151° |
| 2026-04-22 18:26 | 44.28075 | 17.82503 | 16090 ft | 379 kts | 151° |
| 2026-04-22 18:26 | 44.25802 | 17.84108 | 15955 ft | 353 kts | 151° |
| 2026-04-22 18:27 | 44.23678 | 17.85607 | 15768 ft | 332 kts | 151° |
| 2026-04-22 18:27 | 44.21655 | 17.87042 | 15293 ft | 323 kts | 151° |
| 2026-04-22 18:27 | 44.19672 | 17.88460 | 14720 ft | 318 kts | 150° |
| 2026-04-22 18:27 | 44.17719 | 17.89865 | 14147 ft | 314 kts | 150° |
| 2026-04-22 18:28 | 44.15782 | 17.91261 | 13532 ft | 311 kts | 150° |
| 2026-04-22 18:28 | 44.13886 | 17.92626 | 12870 ft | 309 kts | 149° |
| 2026-04-22 18:28 | 44.11983 | 17.93991 | 12295 ft | 305 kts | 150° |
| 2026-04-22 18:28 | 44.10149 | 17.95300 | 12144 ft | 286 kts | 150° |
| 2026-04-22 18:29 | 44.08428 | 17.96524 | 11955 ft | 269 kts | 149° |
| 2026-04-22 18:29 | 44.06786 | 17.97693 | 11517 ft | 264 kts | 149° |
| 2026-04-22 18:29 | 44.05107 | 17.98899 | 10510 ft | 279 kts | 149° |
| 2026-04-22 18:29 | 44.03347 | 18.00167 | 9638 ft | 287 kts | 149° |
| 2026-04-22 18:30 | 44.01493 | 18.01229 | 8904 ft | 288 kts | 158° |
| 2026-04-22 18:30 | 43.97766 | 18.03073 | 8012 ft | 281 kts | 158° |
| 2026-04-22 18:30 | 43.95884 | 18.03636 | 7346 ft | 282 kts | 179° |
| 2026-04-22 18:31 | 43.93984 | 18.03044 | 6728 ft | 282 kts | 201° |
| 2026-04-22 18:31 | 43.92142 | 18.02271 | 6253 ft | 269 kts | 177° |
| 2026-04-22 18:31 | 43.90384 | 18.02880 | 6050 ft | 259 kts | 141° |
| 2026-04-22 18:31 | 43.89248 | 18.04648 | 5442 ft | 243 kts | 106° |
| 2026-04-22 18:32 | 43.89049 | 18.06841 | 5197 ft | 218 kts | 85° |
| 2026-04-22 18:32 | 43.89015 | 18.08862 | 5027 ft | 203 kts | 86° |
| 2026-04-22 18:32 | 43.88982 | 18.10816 | 4453 ft | 206 kts | 89° |
| 2026-04-22 18:32 | 43.88953 | 18.12833 | 4183 ft | 214 kts | 90° |
| 2026-04-22 18:33 | 43.88923 | 18.14899 | 4164 ft | 213 kts | 92° |
| 2026-04-22 18:33 | 43.88554 | 18.16836 | 4170 ft | 201 kts | 116° |
| 2026-04-22 18:33 | 43.87928 | 18.18520 | 3891 ft | 194 kts | 117° |
| 2026-04-22 18:33 | 43.87317 | 18.20144 | 3652 ft | 184 kts | 116° |
| 2026-04-22 18:34 | 43.86757 | 18.21639 | 3445 ft | 168 kts | 114° |
| 2026-04-22 18:34 | 43.86240 | 18.23022 | 3233 ft | 154 kts | 115° |
| 2026-04-22 18:34 | 43.85763 | 18.24298 | 3027 ft | 148 kts | 113° |
| 2026-04-22 18:34 | 43.85292 | 18.25552 | 2792 ft | 146 kts | 115° |
| 2026-04-22 18:35 | 43.84794 | 18.26777 | 2546 ft | 145 kts | 118° |
| 2026-04-22 18:35 | 43.84332 | 18.28026 | 2303 ft | 146 kts | 112° |
| 2026-04-22 18:35 | 43.83895 | 18.29303 | 2059 ft | 148 kts | 116° |
| 2026-04-22 18:35 | 43.83417 | 18.30563 | 1880 ft | 148 kts | 116° |
| 2026-04-22 18:36 | 43.82952 | 18.31846 | 1689 ft | 149 kts | 117° |
| 2026-04-22 18:36 | 43.82498 | 18.33050 | 1677 ft | 126 kts | 117° |
| 2026-04-22 18:36 | 43.82174 | 18.33916 | 1694 ft | 76 kts | 117° |
| 2026-04-22 18:36 | 43.82029 | 18.34310 | 1696 ft | 39 kts | 117° |
| 2026-04-22 18:37 | 43.81956 | 18.34515 | 1703 ft | 12 kts | 97° |
| 2026-04-22 18:37 | 43.81973 | 18.34595 | 1707 ft | 6 kts | 47° |
| 2026-04-22 18:37 | 43.81992 | 18.34612 | 1707 ft | 4 kts | 29° |
| 2026-04-22 18:37 | 43.82064 | 18.34609 | 1707 ft | 14 kts | 336° |
| 2026-04-22 18:38 | 43.82144 | 18.34473 | 1704 ft | 24 kts | 293° |
| 2026-04-22 18:38 | 43.82232 | 18.34233 | 1699 ft | 31 kts | 298° |
| 2026-04-22 18:38 | 43.82340 | 18.33941 | 1692 ft | 35 kts | 296° |
| 2026-04-22 18:39 | 43.82486 | 18.33734 | 1685 ft | 0 kts | 27° |